SZX weather

Shenzhen Bao'an International Airport
Shenzhen, Guangdong Province, China

Public forecast

Using degrees Celsius for public forecast. Weather courtesy of forecast.io.

METAR (pilot weather report)

Retrieved 2019/05/22 16:00 UTC (9 minutes ago):

ZGSZ 221600Z 17004MPS 9999 BKN024 27/24 Q1010 NOSIG

TAF (pilot weather forecast)

Retrieved 2019/05/22 12:00 UTC (4 hours ago):

TAF ZGSZ 220925Z 2212/2312 19004MPS 6000 FEW020 SCT040 TX28/2306Z TN23/2222Z TEMPO 2212/2216 SHRA SCT011 FEW020CB BKN030 TEMPO 2220/2302 TSRA SCT010 FEW020CB BKN030